Time;durP1;ratioP1;P1;durP2;ratioP2;P2;SDS_P1;SDS_P2;PMS_P1;PMS_P2;Temp;Humidity;BMP_temperature;BMP_pressure;BME280_temperature;BME280_humidity;BME280_pressure;Samples;Min_cycle;Max_cycle;Signal;HPM_P1;HPM_P2
2022/05/24 00:01:33;;;;;;;3.30;2.07;;;14.20;99.90;;;;;;5118555;28;20532;-85
2022/05/24 00:03:59;;;;;;;4.97;2.30;;;;;;;;;;5120012;28;20175;-85
2022/05/24 00:06:28;;;;;;;2.93;2.00;;;14.20;99.90;;;;;;5118746;28;20188;-85
2022/05/24 00:08:54;;;;;;;3.00;2.40;;;14.20;99.90;;;;;;5119859;28;20203;-85
2022/05/24 00:11:20;;;;;;;5.07;2.50;;;14.20;99.90;;;;;;5120943;28;20204;-85
2022/05/24 00:13:46;;;;;;;3.50;2.93;;;14.20;99.90;;;;;;5118850;28;20217;-85
2022/05/24 00:16:12;;;;;;;6.83;2.50;;;14.20;99.90;;;;;;5118925;28;20196;-86
2022/05/24 00:18:38;;;;;;;3.60;2.77;;;14.20;99.90;;;;;;5120956;28;20592;-86
2022/05/24 00:21:05;;;;;;;3.03;2.70;;;14.20;99.90;;;;;;5118631;28;20190;-86
2022/05/24 00:23:31;;;;;;;3.63;2.30;;;14.20;99.90;;;;;;5120671;28;20168;-86
2022/05/24 00:26:02;;;;;;;2.83;2.23;;;14.20;99.90;;;;;;5118945;28;20256;-86
2022/05/24 00:28:30;;;;;;;4.60;2.93;;;14.10;99.90;;;;;;5119230;28;20167;-86
2022/05/24 00:30:56;;;;;;;5.27;2.80;;;14.20;99.90;;;;;;5117479;28;20183;-88
2022/05/24 00:33:22;;;;;;;5.00;2.50;;;14.10;99.90;;;;;;5115532;28;20245;-87
2022/05/24 00:35:48;;;;;;;6.53;3.10;;;14.10;99.90;;;;;;5114502;28;20207;-87
2022/05/24 00:38:20;;;;;;;4.90;2.57;;;14.10;99.90;;;;;;5116237;28;20270;-87
2022/05/24 00:40:45;;;;;;;4.00;2.80;;;14.10;99.90;;;;;;5117631;28;20590;-87
2022/05/24 00:43:14;;;;;;;5.20;2.80;;;14.10;99.90;;;;;;5114922;28;20180;-87
2022/05/24 00:45:46;;;;;;;5.67;2.53;;;14.00;99.90;;;;;;5115451;28;20196;-87
2022/05/24 00:48:27;;;;;;;6.40;2.67;;;14.00;99.90;;;;;;5116220;28;20205;-87
2022/05/24 00:50:53;;;;;;;5.17;2.37;;;14.00;99.90;;;;;;5115467;28;20222;-88
2022/05/24 00:53:24;;;;;;;3.17;2.60;;;14.00;99.90;;;;;;5113691;28;20176;-87
2022/05/24 00:55:56;;;;;;;6.63;2.70;;;13.90;99.90;;;;;;5115163;28;20191;-87
2022/05/24 00:58:58;;;;;;;4.43;2.60;;;13.90;99.90;;;;;;5114400;28;20195;-87
2022/05/24 01:01:39;;;;;;;4.20;2.43;;;13.90;99.90;;;;;;5101245;28;20182;-88
2022/05/24 01:04:06;;;;;;;4.60;2.63;;;13.90;99.90;;;;;;5116099;28;20187;-88
2022/05/24 01:06:32;;;;;;;4.57;2.50;;;13.90;99.90;;;;;;5116801;28;20196;-88
2022/05/24 01:09:03;;;;;;;3.20;2.47;;;13.90;99.90;;;;;;5116841;28;20171;-89
2022/05/24 01:11:32;;;;;;;2.90;2.53;;;13.90;99.90;;;;;;5117813;28;20163;-89
2022/05/24 01:13:59;;;;;;;7.43;2.43;;;13.90;99.90;;;;;;5116775;28;20187;-89
2022/05/24 01:16:25;;;;;;;4.37;2.50;;;13.90;99.90;;;;;;5117075;28;20213;-88
2022/05/24 01:18:51;;;;;;;6.47;2.83;;;;;;;;;;5118658;28;20680;-89
2022/05/24 01:21:17;;;;;;;6.47;2.90;;;13.90;99.90;;;;;;5116830;28;20195;-89
2022/05/24 01:23:53;;;;;;;4.73;2.80;;;13.90;99.90;;;;;;5116456;28;20171;-89
2022/05/24 01:26:51;;;;;;;3.17;2.53;;;14.00;99.90;;;;;;5117776;28;20195;-88
2022/05/24 01:29:20;;;;;;;5.30;2.97;;;13.90;99.90;;;;;;5116674;28;20167;-88
2022/05/24 01:37:17;;;;;;;5.50;2.50;;;14.00;99.90;;;;;;5117621;28;20555;-89
2022/05/24 01:39:51;;;;;;;2.43;2.23;;;13.90;99.90;;;;;;5116163;28;20167;-88
2022/05/24 01:42:17;;;;;;;4.27;2.70;;;13.90;99.90;;;;;;5117602;28;20640;-88
2022/05/24 01:44:50;;;;;;;4.97;2.87;;;13.90;99.90;;;;;;5115738;28;20171;-88
2022/05/24 01:47:18;;;;;;;4.03;2.60;;;13.90;99.90;;;;;;5116157;28;20255;-89
2022/05/24 01:49:47;;;;;;;5.30;2.77;;;13.90;99.90;;;;;;5116243;28;20715;-87
2022/05/24 01:52:27;;;;;;;5.40;3.03;;;14.00;99.90;;;;;;5119346;28;20637;-87
2022/05/24 01:54:58;;;;;;;3.87;3.03;;;13.90;99.90;;;;;;5119152;28;20195;-87
2022/05/24 01:57:30;;;;;;;6.00;3.00;;;13.90;99.90;;;;;;5117071;28;20213;-87
2022/05/24 01:59:57;;;;;;;3.87;2.30;;;13.90;99.90;;;;;;5116138;28;20199;-87
2022/05/24 02:02:24;;;;;;;2.63;2.00;;;13.80;99.90;;;;;;5117334;28;20186;-87
2022/05/24 02:04:50;;;;;;;5.23;2.20;;;13.80;99.90;;;;;;5115784;28;20222;-89
2022/05/24 02:07:33;;;;;;;3.27;2.30;;;13.80;99.90;;;;;;5115630;28;20526;-89
2022/05/24 02:09:59;;;;;;;4.30;2.50;;;13.80;99.90;;;;;;5119101;28;20188;-89
2022/05/24 02:12:26;;;;;;;3.37;2.20;;;13.80;99.90;;;;;;5115509;28;20209;-88
2022/05/24 02:15:08;;;;;;;6.13;2.60;;;13.80;99.90;;;;;;5114848;28;20215;-88
2022/05/24 02:17:51;;;;;;;4.50;2.50;;;13.80;99.90;;;;;;5116816;27;20197;-88
2022/05/24 02:20:26;;;;;;;3.10;2.30;;;13.90;99.90;;;;;;5116473;28;20495;-88
2022/05/24 02:22:52;;;;;;;4.83;2.30;;;13.90;99.90;;;;;;5116280;28;20572;-88
2022/05/24 02:25:22;;;;;;;3.50;2.40;;;13.90;99.90;;;;;;5116215;28;20195;-88
2022/05/24 02:27:49;;;;;;;5.27;2.27;;;13.90;99.90;;;;;;5116374;28;20183;-87
2022/05/24 02:30:19;;;;;;;4.57;2.53;;;13.90;99.90;;;;;;5115947;28;20278;-88
2022/05/24 02:32:45;;;;;;;7.23;2.43;;;13.90;99.90;;;;;;5115181;28;20172;-89
2022/05/24 02:35:11;;;;;;;5.67;3.00;;;13.90;99.90;;;;;;5115541;28;20199;-87
2022/05/24 02:37:38;;;;;;;3.70;2.60;;;13.80;99.90;;;;;;5115758;28;20211;-87
2022/05/24 02:42:48;;;;;;;3.47;3.10;;;13.80;99.90;;;;;;5117007;28;20166;-87
2022/05/24 02:45:14;;;;;;;2.93;2.40;;;13.80;99.90;;;;;;5115150;28;20203;-88
2022/05/24 02:47:40;;;;;;;3.37;2.37;;;13.70;99.90;;;;;;5115162;28;20240;-87
2022/05/24 02:50:09;;;;;;;3.17;2.60;;;13.70;99.90;;;;;;5118789;28;20175;-87
2022/05/24 02:52:36;;;;;;;4.37;2.37;;;13.80;99.90;;;;;;5117579;28;20222;-87
2022/05/24 02:55:04;;;;;;;5.17;2.63;;;13.80;99.90;;;;;;5117682;28;20213;-87
2022/05/24 02:57:30;;;;;;;3.17;2.30;;;;;;;;;;5120707;28;20199;-87
2022/05/24 02:59:55;;;;;;;4.43;2.10;;;13.80;99.90;;;;;;5117542;28;20540;-87
2022/05/24 03:02:21;;;;;;;4.73;2.07;;;13.70;99.90;;;;;;5115808;28;20182;-87
2022/05/24 03:04:46;;;;;;;3.47;2.50;;;13.80;99.90;;;;;;5116071;28;20191;-87
2022/05/24 03:09:56;;;;;;;2.07;1.87;;;13.80;99.90;;;;;;5121030;28;20292;-86
2022/05/24 03:15:07;;;;;;;4.50;2.10;;;13.80;99.90;;;;;;5122415;28;20268;-87
2022/05/24 03:17:32;;;;;;;5.67;2.13;;;13.90;99.90;;;;;;5122241;28;20203;-86
2022/05/24 03:19:58;;;;;;;5.00;1.90;;;13.80;99.90;;;;;;5124470;28;20174;-86
2022/05/24 03:22:24;;;;;;;2.63;2.00;;;13.80;99.90;;;;;;5122988;28;20186;-87
2022/05/24 03:24:50;;;;;;;6.00;2.27;;;;;;;;;;5122725;28;20187;-87
2022/05/24 03:27:18;;;;;;;2.57;2.13;;;13.80;99.90;;;;;;5122286;28;20257;-87
2022/05/24 03:29:45;;;;;;;3.50;2.40;;;13.80;99.90;;;;;;5119755;28;20174;-87
2022/05/24 03:32:14;;;;;;;3.33;2.10;;;13.80;99.90;;;;;;5122200;28;20179;-87
2022/05/24 03:34:40;;;;;;;6.27;2.13;;;13.90;99.90;;;;;;5120650;28;20206;-87
2022/05/24 03:37:07;;;;;;;6.57;2.20;;;13.80;99.90;;;;;;5119349;28;20648;-87
2022/05/24 03:39:33;;;;;;;3.77;2.27;;;13.80;99.90;;;;;;5118584;28;20175;-87
2022/05/24 03:42:00;;;;;;;2.57;1.93;;;;;;;;;;5118199;28;20167;-87
2022/05/24 03:44:26;;;;;;;4.87;2.13;;;;;;;;;;5117113;28;20205;-87
2022/05/24 03:46:53;;;;;;;6.03;2.00;;;13.80;99.90;;;;;;5116565;28;20262;-87
2022/05/24 03:49:19;;;;;;;3.07;1.70;;;13.80;99.90;;;;;;5116663;28;20172;-88
2022/05/24 03:51:45;;;;;;;3.57;2.37;;;13.80;99.90;;;;;;5115983;28;20617;-87
2022/05/24 03:54:11;;;;;;;5.50;2.77;;;13.80;99.90;;;;;;5114958;28;20190;-88
2022/05/24 03:56:37;;;;;;;3.20;2.10;;;13.80;99.90;;;;;;5114434;28;20259;-89
2022/05/24 03:59:03;;;;;;;4.23;2.20;;;13.80;99.90;;;;;;5116922;28;20243;-87
2022/05/24 04:01:29;;;;;;;7.87;3.43;;;13.80;99.90;;;;;;5117541;28;20235;-87
2022/05/24 04:03:55;;;;;;;2.93;2.50;;;;;;;;;;5115881;28;20262;-87
2022/05/24 04:06:21;;;;;;;2.53;2.10;;;13.80;99.90;;;;;;5115402;28;20206;-88
2022/05/24 04:08:48;;;;;;;4.57;2.27;;;13.70;99.90;;;;;;5115796;28;20266;-88
2022/05/24 04:11:14;;;;;;;4.60;2.87;;;13.80;99.90;;;;;;5117633;28;20186;-87
2022/05/24 04:13:41;;;;;;;5.43;2.43;;;13.80;99.90;;;;;;5116608;28;20636;-87
2022/05/24 04:16:08;;;;;;;2.27;2.07;;;13.80;99.90;;;;;;5116519;28;20225;-87
2022/05/24 04:18:35;;;;;;;5.20;3.07;;;13.80;99.90;;;;;;5115007;28;20283;-87
2022/05/24 04:21:01;;;;;;;3.87;2.60;;;13.80;99.90;;;;;;5114476;28;20190;-87
2022/05/24 04:23:27;;;;;;;3.07;2.33;;;13.80;99.90;;;;;;5114757;28;20172;-87
2022/05/24 04:25:54;;;;;;;5.77;2.60;;;13.80;99.90;;;;;;5114803;28;20284;-88
2022/05/24 04:28:21;;;;;;;3.27;2.57;;;13.80;99.90;;;;;;5115693;27;20244;-87
2022/05/24 04:30:47;;;;;;;5.13;2.57;;;13.80;99.90;;;;;;5115230;28;20247;-88
2022/05/24 04:33:14;;;;;;;5.53;2.90;;;13.80;99.90;;;;;;5115873;28;20175;-88
2022/05/24 04:35:41;;;;;;;3.10;2.20;;;13.80;99.90;;;;;;5115052;28;20259;-88
2022/05/24 04:38:07;;;;;;;3.43;2.30;;;13.80;99.90;;;;;;5115303;28;20661;-87
2022/05/24 04:43:18;;;;;;;5.10;2.77;;;13.80;99.90;;;;;;5121013;28;20171;-88
2022/05/24 04:45:44;;;;;;;3.90;2.33;;;13.80;99.90;;;;;;5120012;28;20195;-87
2022/05/24 04:48:10;;;;;;;3.20;2.70;;;13.80;99.90;;;;;;5124113;28;20179;-87
2022/05/24 04:50:36;;;;;;;3.77;2.13;;;13.80;99.90;;;;;;5123242;28;20179;-87
2022/05/24 04:53:02;;;;;;;5.43;2.40;;;13.80;99.90;;;;;;5126650;28;20179;-87
2022/05/24 04:55:28;;;;;;;4.37;2.63;;;;;;;;;;5127413;28;20202;-87
2022/05/24 04:57:56;;;;;;;5.87;2.40;;;13.80;99.90;;;;;;5126334;28;20203;-87
2022/05/24 05:00:23;;;;;;;3.10;2.50;;;13.80;99.90;;;;;;5128040;28;20175;-87
2022/05/24 05:02:49;;;;;;;4.93;2.00;;;13.80;99.90;;;;;;5126162;28;20199;-87
2022/05/24 05:05:15;;;;;;;4.47;2.23;;;;;;;;;;5124270;28;20332;-87
2022/05/24 05:07:42;;;;;;;10.27;3.43;;;13.80;99.90;;;;;;5120236;28;20186;-82
2022/05/24 05:10:09;;;;;;;7.30;3.87;;;13.90;99.90;;;;;;5121386;28;20188;-86
2022/05/24 05:12:35;;;;;;;4.80;2.27;;;13.90;99.90;;;;;;5123642;27;20171;-88
2022/05/24 05:15:02;;;;;;;3.87;2.03;;;13.90;99.90;;;;;;5119923;28;20215;-88
2022/05/24 05:17:28;;;;;;;5.60;2.13;;;14.00;99.90;;;;;;5121928;28;20229;-88
2022/05/24 05:19:54;;;;;;;5.60;2.30;;;;;;;;;;5120774;28;20183;-88
2022/05/24 05:22:22;;;;;;;4.10;2.07;;;14.00;99.90;;;;;;5120943;28;20286;-84
2022/05/24 05:24:48;;;;;;;4.23;2.53;;;;;;;;;;5125265;28;20228;-87
2022/05/24 05:27:14;;;;;;;4.13;2.07;;;;;;;;;;5124986;28;20245;-87
2022/05/24 05:32:30;;;;;;;3.87;1.70;;;14.00;99.90;;;;;;5128634;28;20175;-86
2022/05/24 05:34:57;;;;;;;3.33;1.80;;;13.90;99.90;;;;;;5128468;28;20227;-86
2022/05/24 05:37:23;;;;;;;4.27;1.97;;;;;;;;;;5122829;28;20211;-85
2022/05/24 05:39:49;;;;;;;4.63;2.13;;;;;;;;;;5123856;28;20189;-85
2022/05/24 05:42:15;;;;;;;5.90;1.97;;;13.80;99.90;;;;;;5125561;28;20179;-86
2022/05/24 05:44:41;;;;;;;3.03;1.50;;;;;;;;;;5126568;28;20674;-86
2022/05/24 05:47:11;;;;;;;4.00;1.80;;;13.70;99.90;;;;;;5126382;28;20179;-86
2022/05/24 05:49:36;;;;;;;3.93;1.63;;;13.70;99.90;;;;;;5125784;28;20180;-85
2022/05/24 05:52:03;;;;;;;3.20;1.80;;;;;;;;;;5126723;28;20183;-85
2022/05/24 05:54:29;;;;;;;4.27;1.80;;;;;;;;;;5128585;28;20304;-85
2022/05/24 05:56:55;;;;;;;3.17;1.90;;;13.70;99.90;;;;;;5127431;28;20180;-86
2022/05/24 05:59:20;;;;;;;3.33;1.87;;;13.70;99.90;;;;;;5127865;28;20187;-85
2022/05/24 06:01:46;;;;;;;2.67;1.77;;;;;;;;;;5129083;28;20179;-86
2022/05/24 06:04:12;;;;;;;2.33;1.40;;;;;;;;;;5125827;28;20530;-84
2022/05/24 06:06:41;;;;;;;4.47;2.30;;;13.70;99.90;;;;;;5122218;28;20193;-84
2022/05/24 06:09:07;;;;;;;5.30;2.00;;;;;;;;;;5121638;28;20575;-85
2022/05/24 06:11:33;;;;;;;2.97;1.60;;;;;;;;;;5124207;28;20270;-86
2022/05/24 06:13:59;;;;;;;5.43;2.10;;;;;;;;;;5127743;28;20220;-87
2022/05/24 06:16:25;;;;;;;4.00;2.40;;;13.70;99.90;;;;;;5120218;28;20203;-87
2022/05/24 06:18:51;;;;;;;3.83;1.97;;;;;;;;;;5119507;28;20199;-87
2022/05/24 06:21:17;;;;;;;3.43;1.80;;;13.50;99.90;;;;;;5122592;28;20241;-87
2022/05/24 06:23:43;;;;;;;3.83;2.07;;;;;;;;;;5123220;28;20685;-86
2022/05/24 06:26:09;;;;;;;3.80;2.10;;;;;;;;;;5121855;28;20286;-87
2022/05/24 06:28:35;;;;;;;3.60;1.90;;;13.60;99.90;;;;;;5122553;28;20183;-86
2022/05/24 06:31:01;;;;;;;9.13;2.30;;;13.50;99.90;;;;;;5119802;28;20190;-87
2022/05/24 06:33:27;;;;;;;6.13;2.00;;;13.40;99.90;;;;;;5118510;28;20175;-87
2022/05/24 06:35:53;;;;;;;2.97;2.00;;;;;;;;;;5116938;28;20226;-86
2022/05/24 06:38:19;;;;;;;8.10;1.90;;;;;;;;;;5117371;28;20706;-87
2022/05/24 06:40:46;;;;;;;4.70;1.70;;;13.30;99.90;;;;;;5118251;28;20180;-87
2022/05/24 06:43:13;;;;;;;6.07;2.00;;;;;;;;;;5119572;28;20214;-87
2022/05/24 06:45:40;;;;;;;6.80;1.77;;;13.40;99.90;;;;;;5118846;28;20564;-87
2022/05/24 06:48:12;;;;;;;3.93;1.87;;;13.50;99.90;;;;;;5120685;27;20258;-86
2022/05/24 06:50:38;;;;;;;2.77;1.70;;;;;;;;;;5119958;28;20175;-87
2022/05/24 06:53:04;;;;;;;2.20;1.60;;;;;;;;;;5121216;28;20213;-87
2022/05/24 06:55:30;;;;;;;2.17;1.63;;;;;;;;;;5120030;28;20207;-87
2022/05/24 06:57:56;;;;;;;1.37;1.20;;;;;;;;;;5120857;28;20206;-87
2022/05/24 07:03:10;;;;;;;3.47;1.60;;;13.30;99.90;;;;;;5122602;28;20185;-87
2022/05/24 07:05:36;;;;;;;4.20;2.27;;;;;;;;;;5121747;28;20219;-86
2022/05/24 07:08:02;;;;;;;4.33;1.60;;;;;;;;;;5122224;28;20183;-87
2022/05/24 07:10:30;;;;;;;2.60;1.70;;;13.30;99.90;;;;;;5123247;28;20206;-86
2022/05/24 07:13:03;;;;;;;1.93;1.67;;;;;;;;;;5123925;28;20203;-86
2022/05/24 07:15:30;;;;;;;2.33;1.60;;;;;;;;;;5121824;28;20207;-86
2022/05/24 07:17:56;;;;;;;1.43;1.00;;;;;;;;;;5121701;28;20260;-86
2022/05/24 07:20:22;;;;;;;1.93;1.53;;;;;;;;;;5122187;28;20570;-86
2022/05/24 07:22:48;;;;;;;6.50;1.20;;;;;;;;;;5121565;28;20238;-86
2022/05/24 07:25:15;;;;;;;2.70;1.80;;;;;;;;;;5122380;28;20222;-86
2022/05/24 07:27:42;;;;;;;3.00;1.50;;;;;;;;;;5122811;28;20168;-87
2022/05/24 07:30:08;;;;;;;1.93;1.00;;;;;;;;;;5121207;28;20180;-87
2022/05/24 07:32:34;;;;;;;2.47;1.10;;;;;;;;;;5120135;28;20632;-86
2022/05/24 07:35:01;;;;;;;0.80;0.80;;;;;;;;;;5121391;28;20208;-87
2022/05/24 07:37:27;;;;;;;1.00;0.90;;;;;;;;;;5121204;28;20207;-86
2022/05/24 07:45:48;;;;;;;2.00;0.83;;;;;;;;;;5120651;28;20183;-88
2022/05/24 07:48:09;;;;;;;1.07;0.70;;;13.20;99.90;;;;;;5119657;28;20594;-86
2022/05/24 07:50:35;;;;;;;2.23;0.90;;;13.30;99.90;;;;;;5117667;28;20637;-86
2022/05/24 07:53:01;;;;;;;1.57;1.00;;;13.10;99.90;;;;;;5119046;28;20258;-86
2022/05/24 07:55:26;;;;;;;2.43;0.97;;;13.30;99.90;;;;;;5120025;28;20222;-86
2022/05/24 07:57:52;;;;;;;2.20;1.17;;;13.30;99.90;;;;;;5119937;28;20231;-86
2022/05/24 08:00:18;;;;;;;2.73;1.00;;;;;;;;;;5121598;28;20167;-86
2022/05/24 08:02:44;;;;;;;6.10;1.10;;;;;;;;;;5121620;28;20266;-86
2022/05/24 08:05:11;;;;;;;1.37;0.97;;;;;;;;;;5121463;28;20214;-86
2022/05/24 08:07:37;;;;;;;3.20;1.20;;;;;;;;;;5122976;28;20525;-85
2022/05/24 08:10:04;;;;;;;1.83;0.77;;;;;;;;;;5121864;28;20175;-87
2022/05/24 08:12:32;;;;;;;4.40;0.80;;;13.80;99.90;;;;;;5121774;28;20641;-87
2022/05/24 08:14:58;;;;;;;2.73;1.00;;;;;;;;;;5124507;28;20211;-87
2022/05/24 08:17:25;;;;;;;1.80;1.03;;;;;;;;;;5127514;28;20251;-87
2022/05/24 08:19:52;;;;;;;1.83;0.80;;;;;;;;;;5128769;28;20184;-86
2022/05/24 08:22:19;;;;;;;3.27;1.00;;;;;;;;;;5129199;28;20203;-87
2022/05/24 08:24:45;;;;;;;2.60;1.00;;;;;;;;;;5127630;28;20180;-87
2022/05/24 08:27:14;;;;;;;2.77;1.00;;;;;;;;;;5128325;28;20270;-86
2022/05/24 08:29:40;;;;;;;1.73;0.90;;;;;;;;;;5128884;28;20274;-86
2022/05/24 08:32:06;;;;;;;2.17;0.93;;;;;;;;;;5129767;28;20206;-86
2022/05/24 08:34:32;;;;;;;2.30;1.30;;;;;;;;;;5128155;28;20249;-86
2022/05/24 08:36:59;;;;;;;1.50;1.00;;;;;;;;;;5128557;28;20274;-86
2022/05/24 08:39:25;;;;;;;2.53;1.00;;;;;;;;;;5128077;28;20176;-86
2022/05/24 08:41:57;;;;;;;3.07;1.10;;;;;;;;;;5130588;28;20176;-86
2022/05/24 08:50:13;;;;;;;2.67;1.30;;;13.60;99.90;;;;;;5066829;28;20185;-86
2022/05/24 08:52:48;;;;;;;2.70;1.00;;;13.60;99.90;;;;;;5110421;28;20180;-86
2022/05/24 08:55:14;;;;;;;6.30;1.17;;;;;;;;;;5129116;28;20236;-86
2022/05/24 08:57:45;;;;;;;6.20;1.37;;;13.70;99.90;;;;;;5128093;28;20703;-85
2022/05/24 09:00:16;;;;;;;1.67;0.97;;;13.80;99.90;;;;;;5129062;28;20172;-86
2022/05/24 09:02:46;;;;;;;1.37;0.90;;;13.80;99.90;;;;;;5128427;28;20176;-85
2022/05/24 09:05:33;;;;;;;1.80;1.10;;;13.80;99.90;;;;;;5127759;28;20213;-85
2022/05/24 09:08:24;;;;;;;3.10;1.10;;;13.80;99.90;;;;;;5124880;28;20183;-84
2022/05/24 09:11:20;;;;;;;3.33;1.10;;;13.60;99.90;;;;;;5119166;28;20195;-84
2022/05/24 09:14:09;;;;;;;2.57;1.23;;;13.80;99.90;;;;;;5122109;28;20191;-84
2022/05/24 09:16:46;;;;;;;2.93;1.40;;;13.80;99.90;;;;;;5121440;28;20238;-85
2022/05/24 09:19:33;;;;;;;4.30;1.30;;;14.00;99.90;;;;;;5120758;28;20721;-84
2022/05/24 09:22:01;;;;;;;1.70;1.00;;;14.20;99.90;;;;;;5121007;28;20175;-85
2022/05/24 09:24:49;;;;;;;3.67;1.07;;;14.20;99.90;;;;;;5121938;28;20175;-85
2022/05/24 09:27:16;;;;;;;1.67;1.20;;;14.30;99.90;;;;;;5122741;28;20178;-85
2022/05/24 09:30:04;;;;;;;1.70;1.20;;;;;;;;;;5124437;28;20178;-84
2022/05/24 09:32:42;;;;;;;1.40;1.30;;;14.50;99.90;;;;;;5124710;28;20211;-85
2022/05/24 09:35:21;;;;;;;1.83;1.30;;;14.60;99.90;;;;;;5123744;28;20202;-85
2022/05/24 09:38:07;;;;;;;2.17;1.10;;;14.70;99.90;;;;;;5122892;28;20207;-86
2022/05/24 09:40:51;;;;;;;1.93;1.40;;;14.60;99.90;;;;;;5107583;28;20568;-85
2022/05/24 09:43:29;;;;;;;2.10;1.20;;;;;;;;;;5125543;28;20175;-85
2022/05/24 09:46:02;;;;;;;2.33;1.57;;;14.70;99.90;;;;;;5126230;28;20191;-85
2022/05/24 09:48:31;;;;;;;1.60;1.33;;;14.80;99.90;;;;;;5126857;28;20171;-85
2022/05/24 09:50:58;;;;;;;2.40;1.10;;;;;;;;;;5128245;28;20220;-85
2022/05/24 09:53:30;;;;;;;2.20;1.00;;;;;;;;;;5127641;28;20179;-86
2022/05/24 09:56:05;;;;;;;2.40;1.17;;;;;;;;;;5128673;28;20236;-86
2022/05/24 09:58:31;;;;;;;2.13;1.17;;;;;;;;;;5128604;28;20199;-85
2022/05/24 10:01:07;;;;;;;2.60;1.30;;;15.80;99.90;;;;;;5128381;28;20248;-86
2022/05/24 10:03:44;;;;;;;1.33;1.03;;;15.90;99.90;;;;;;5127922;28;20171;-80
2022/05/24 10:06:13;;;;;;;1.77;1.27;;;;;;;;;;5127993;28;20254;-83
2022/05/24 10:08:43;;;;;;;2.37;1.10;;;15.90;99.90;;;;;;5129073;28;20171;-83
2022/05/24 10:11:21;;;;;;;1.93;1.23;;;16.00;99.90;;;;;;5127532;28;20203;-83
2022/05/24 10:13:59;;;;;;;3.43;1.10;;;16.10;99.90;;;;;;5128001;28;20206;-83
2022/05/24 10:16:41;;;;;;;3.47;0.83;;;16.00;99.90;;;;;;5127753;28;20797;-82
2022/05/24 10:19:07;;;;;;;1.00;0.80;;;;;;;;;;5127366;28;20199;-83
2022/05/24 10:21:40;;;;;;;3.10;1.20;;;16.00;99.90;;;;;;5129229;28;20167;-84
2022/05/24 10:24:06;;;;;;;2.60;1.00;;;;;;;;;;5128637;28;20196;-83
2022/05/24 10:26:33;;;;;;;2.23;0.80;;;;;;;;;;5127365;28;20199;-83
2022/05/24 10:28:59;;;;;;;2.40;1.03;;;;;;;;;;5126713;28;20201;-84
2022/05/24 10:31:25;;;;;;;1.67;0.97;;;;;;;;;;5124394;28;20179;-83
2022/05/24 10:40:11;;;;;;;2.10;1.17;;;;;;;;;;5127043;28;20187;-84
2022/05/24 10:42:37;;;;;;;1.50;1.00;;;;;;;;;;5130073;28;20169;-83
2022/05/24 10:45:13;;;;;;;2.17;1.00;;;15.50;99.90;;;;;;5126491;28;20196;-83
2022/05/24 10:48:09;;;;;;;0.93;0.87;;;15.50;99.90;;;;;;5127293;28;20179;-83
2022/05/24 10:50:40;;;;;;;1.93;0.90;;;15.30;99.90;;;;;;5124063;28;20762;-84
2022/05/24 10:53:17;;;;;;;1.87;1.10;;;;;;;;;;5127801;28;20223;-83
2022/05/24 10:55:46;;;;;;;2.67;1.40;;;;;;;;;;5128305;27;20191;-83
2022/05/24 10:58:17;;;;;;;3.73;0.90;;;14.80;99.90;;;;;;5121302;28;20199;-79
2022/05/24 11:01:08;;;;;;;1.33;0.77;;;14.50;99.90;;;;;;5117203;28;20540;-78
2022/05/24 11:03:47;;;;;;;2.40;1.07;;;14.00;99.90;;;;;;5118412;28;20152;-78
2022/05/24 11:06:34;;;;;;;3.07;1.20;;;13.60;99.90;;;;;;5117573;28;20528;-79
2022/05/24 11:09:18;;;;;;;1.63;1.10;;;13.10;99.90;;;;;;5118402;28;20164;-78
2022/05/24 11:11:43;;;;;;;0.50;0.40;;;12.70;99.90;;;;;;5117492;28;20625;-79
2022/05/24 11:14:32;;;;;;;1.70;0.60;;;12.90;99.90;;;;;;5117341;28;20195;-79
2022/05/24 11:16:58;;;;;;;0.40;0.40;;;12.60;99.90;;;;;;5118752;28;20629;-78
2022/05/24 11:19:38;;;;;;;0.40;0.40;;;12.90;99.90;;;;;;5121685;28;20220;-79
2022/05/24 11:22:19;;;;;;;0.60;0.60;;;12.90;99.90;;;;;;5119466;28;20160;-78
2022/05/24 11:25:02;;;;;;;0.60;0.60;;;12.90;99.90;;;;;;5120529;28;20166;-78
2022/05/24 11:27:30;;;;;;;0.50;0.50;;;12.60;99.90;;;;;;5118147;28;20630;-78
2022/05/24 11:30:10;;;;;;;0.93;0.70;;;12.70;99.90;;;;;;5119831;28;20179;-79
2022/05/24 11:32:52;;;;;;;1.27;0.70;;;12.50;99.90;;;;;;5119942;28;20175;-79
2022/05/24 11:35:18;;;;;;;1.10;0.97;;;12.30;99.90;;;;;;5118707;28;20300;-79
2022/05/24 11:37:45;;;;;;;2.90;1.03;;;12.40;99.90;;;;;;5116786;28;20214;-78
2022/05/24 11:40:36;;;;;;;1.00;0.80;;;12.30;99.90;;;;;;5115561;28;20175;-79
2022/05/24 11:43:43;;;;;;;1.47;1.20;;;12.30;99.90;;;;;;5116207;28;20615;-79
2022/05/24 11:46:33;;;;;;;1.10;1.00;;;12.40;99.90;;;;;;5116529;28;20192;-79
2022/05/24 11:49:03;;;;;;;1.70;1.00;;;12.20;99.90;;;;;;5115577;28;20172;-79
2022/05/24 11:51:34;;;;;;;1.10;0.97;;;;;;;;;;5117542;28;20183;-79
2022/05/24 11:54:02;;;;;;;1.03;0.83;;;12.10;99.90;;;;;;5117677;28;20229;-79
2022/05/24 11:56:29;;;;;;;0.83;0.80;;;12.20;99.90;;;;;;5119039;28;20191;-79
2022/05/24 11:59:02;;;;;;;1.47;1.00;;;12.20;99.90;;;;;;5117528;28;20349;-78
2022/05/24 12:01:27;;;;;;;1.10;0.80;;;12.30;99.90;;;;;;5116875;28;20198;-79
2022/05/24 12:10:04;;;;;;;2.87;1.20;;;12.50;99.90;;;;;;5119169;28;20679;-80
2022/05/24 12:12:36;;;;;;;1.40;1.30;;;12.70;99.90;;;;;;5119113;28;20617;-79
2022/05/24 12:15:43;;;;;;;1.30;1.10;;;12.90;99.90;;;;;;5118706;28;20203;-80
2022/05/24 12:18:09;;;;;;;2.40;1.20;;;13.10;99.90;;;;;;5121530;27;20201;-82
2022/05/24 12:20:35;;;;;;;0.73;0.73;;;13.20;99.90;;;;;;5122031;28;20182;-81
2022/05/24 12:23:06;;;;;;;1.83;1.37;;;13.40;99.90;;;;;;5122614;28;20176;-82
2022/05/24 12:25:58;;;;;;;1.57;1.43;;;13.80;99.90;;;;;;5125826;28;20191;-81
2022/05/24 12:28:48;;;;;;;1.20;0.90;;;13.70;99.90;;;;;;5123656;28;20183;-82
2022/05/24 12:31:14;;;;;;;3.73;0.80;;;13.90;99.90;;;;;;5124160;28;20197;-82
2022/05/24 12:33:52;;;;;;;1.27;1.10;;;14.30;99.90;;;;;;5124916;28;20171;-82
2022/05/24 12:36:41;;;;;;;2.27;0.87;;;14.40;99.90;;;;;;5125430;28;20226;-83
2022/05/24 12:39:06;;;;;;;1.30;0.90;;;14.70;99.90;;;;;;5124611;28;20188;-82
2022/05/24 12:41:43;;;;;;;3.43;0.93;;;14.80;99.90;;;;;;5120041;28;20199;-81
2022/05/24 12:44:14;;;;;;;0.80;0.80;;;14.80;99.90;;;;;;5118669;28;20181;-80
2022/05/24 12:46:43;;;;;;;0.93;0.77;;;14.90;99.90;;;;;;5116696;28;20270;-81
2022/05/24 12:49:14;;;;;;;0.70;0.70;;;15.00;99.90;;;;;;5116827;28;20180;-81
2022/05/24 12:51:40;;;;;;;0.77;0.67;;;15.20;99.90;;;;;;5117954;28;20186;-81
2022/05/24 12:54:14;;;;;;;1.63;0.80;;;15.40;99.90;;;;;;5118959;28;20183;-81
2022/05/24 12:56:51;;;;;;;1.37;0.67;;;15.40;99.90;;;;;;5118246;28;20599;-81
2022/05/24 12:59:17;;;;;;;0.60;0.60;;;15.40;99.90;;;;;;5118392;28;20187;-81
2022/05/24 13:01:42;;;;;;;1.13;0.70;;;15.30;99.90;;;;;;5122634;28;20165;-81
2022/05/24 13:04:16;;;;;;;0.80;0.50;;;15.40;99.90;;;;;;5120859;28;20629;-81
2022/05/24 13:06:43;;;;;;;1.20;0.70;;;15.50;99.90;;;;;;5126301;28;20286;-83
2022/05/24 13:09:15;;;;;;;0.90;0.70;;;15.50;99.90;;;;;;5128925;28;20184;-83
2022/05/24 13:11:43;;;;;;;1.77;1.00;;;15.30;99.90;;;;;;5129413;28;20190;-84
2022/05/24 13:14:37;;;;;;;1.27;0.90;;;15.20;99.90;;;;;;5127957;28;20224;-84
2022/05/24 13:17:07;;;;;;;0.63;0.60;;;15.20;99.90;;;;;;5128904;28;20185;-83
2022/05/24 13:19:54;;;;;;;1.00;0.70;;;14.60;99.90;;;;;;5129123;27;20262;-83
2022/05/24 13:22:37;;;;;;;1.23;0.90;;;15.00;99.90;;;;;;5129118;28;20622;-84
2022/05/24 13:25:04;;;;;;;1.30;0.90;;;;;;;;;;5127488;28;20205;-84
2022/05/24 13:27:50;;;;;;;3.23;0.70;;;15.20;99.90;;;;;;5128192;28;20531;-84
2022/05/24 13:35:50;;;;;;;1.00;0.90;;;15.40;99.90;;;;;;5128628;28;20210;-84
2022/05/24 13:38:23;;;;;;;1.77;1.00;;;15.50;99.90;;;;;;5128119;28;20192;-84
2022/05/24 13:40:56;;;;;;;1.30;0.90;;;15.60;99.90;;;;;;5127824;28;20178;-84
2022/05/24 13:44:04;;;;;;;2.63;1.10;;;15.50;99.90;;;;;;5127739;28;20221;-84
2022/05/24 13:46:30;;;;;;;1.47;1.20;;;15.70;99.90;;;;;;5120098;28;20204;-86
2022/05/24 13:48:58;;;;;;;1.50;1.40;;;15.60;99.90;;;;;;5127336;28;20195;-84
2022/05/24 13:51:28;;;;;;;1.77;1.10;;;15.50;99.90;;;;;;5128996;28;20385;-84
2022/05/24 13:53:55;;;;;;;1.20;1.07;;;15.40;99.90;;;;;;5127180;28;20178;-85
2022/05/24 13:56:31;;;;;;;1.17;1.07;;;15.40;99.90;;;;;;5128423;28;20353;-85
2022/05/24 13:59:20;;;;;;;1.40;1.20;;;15.30;99.90;;;;;;5127810;28;20199;-87
2022/05/24 14:01:52;;;;;;;2.47;1.10;;;15.40;99.90;;;;;;5126368;28;20184;-84
2022/05/24 14:04:21;;;;;;;1.20;1.10;;;15.30;99.90;;;;;;5125431;28;20176;-85
2022/05/24 14:06:51;;;;;;;1.77;1.07;;;15.30;99.90;;;;;;5125519;28;20201;-86
2022/05/24 14:09:18;;;;;;;2.80;1.07;;;15.20;99.90;;;;;;5124663;28;20183;-85
2022/05/24 14:12:10;;;;;;;2.90;1.20;;;15.20;99.90;;;;;;5123959;28;20181;-85
2022/05/24 14:14:37;;;;;;;1.67;1.00;;;15.20;99.90;;;;;;5123273;28;20724;-86
2022/05/24 14:17:07;;;;;;;1.43;1.30;;;15.20;99.90;;;;;;5126162;28;20315;-86
2022/05/24 14:19:34;;;;;;;2.10;1.03;;;15.30;99.90;;;;;;5125488;28;20176;-85
2022/05/24 14:22:00;;;;;;;1.43;0.93;;;;;;;;;;5125801;28;20185;-85